createdAt,value
2019-04-01T00:00:26.992Z,1020.22
2019-04-01T00:01:26.966Z,1020.19
2019-04-01T00:02:27.608Z,1020.18
2019-04-01T00:03:27.603Z,1020.13
2019-04-01T00:04:26.933Z,1020.14
2019-04-01T00:05:26.939Z,1020.12
2019-04-01T00:06:26.902Z,1020.16
2019-04-01T00:07:26.890Z,1020.11
2019-04-01T00:08:27.603Z,1020.15
2019-04-01T00:09:26.906Z,1020.10
2019-04-01T00:10:26.886Z,1020.13
2019-04-01T00:11:26.862Z,1020.10
2019-04-01T00:12:26.841Z,1020.18
2019-04-01T00:13:26.835Z,1020.18
2019-04-01T00:14:26.817Z,1020.16
2019-04-01T00:15:27.242Z,1020.14
2019-04-01T00:16:26.807Z,1020.18
2019-04-01T00:17:26.796Z,1020.13
2019-04-01T00:18:26.776Z,1020.24
2019-04-01T00:19:26.759Z,1020.19
2019-04-01T00:20:27.184Z,1020.17
2019-04-01T00:21:26.765Z,1020.22
2019-04-01T00:22:26.729Z,1020.14
2019-04-01T00:23:26.721Z,1020.14
2019-04-01T00:24:26.729Z,1020.15
2019-04-01T00:25:26.708Z,1020.12
2019-04-01T00:26:26.702Z,1020.12
2019-04-01T00:27:26.669Z,1020.13
2019-04-01T00:28:26.658Z,1020.16
2019-04-01T00:29:26.650Z,1020.16
2019-04-01T00:30:26.645Z,1020.15
2019-04-01T00:31:26.638Z,1020.16
2019-04-01T00:32:26.642Z,1020.14
2019-04-01T00:33:27.598Z,1020.10
2019-04-01T00:34:26.593Z,1020.16
2019-04-01T00:35:26.616Z,1020.13
2019-04-01T00:36:26.572Z,1020.13
2019-04-01T00:37:26.567Z,1020.18
2019-04-01T00:38:26.557Z,1020.15
2019-04-01T00:39:27.105Z,1020.14
2019-04-01T00:40:26.557Z,1020.19
2019-04-01T00:41:26.519Z,1020.17
2019-04-01T00:42:26.509Z,1020.22
2019-04-01T00:43:26.509Z,1020.19
2019-04-01T00:44:27.100Z,1020.21
2019-04-01T00:45:26.509Z,1020.19
2019-04-01T00:46:26.464Z,1020.18
2019-04-01T00:47:26.458Z,1020.18
2019-04-01T00:48:26.443Z,1020.20
2019-04-01T00:49:26.437Z,1020.14
2019-04-01T00:50:26.466Z,1020.13
2019-04-01T00:51:26.413Z,1020.18
2019-04-01T00:52:26.405Z,1020.13
2019-04-01T00:53:26.389Z,1020.15
2019-04-01T00:54:26.382Z,1020.17
2019-04-01T00:55:26.408Z,1020.17
2019-04-01T00:56:26.358Z,1020.20
2019-04-01T00:57:26.346Z,1020.22
2019-04-01T00:58:26.337Z,1020.26
2019-04-01T00:59:26.335Z,1020.20
2019-04-01T01:00:26.347Z,1020.15
2019-04-01T01:01:26.622Z,1020.16
2019-04-01T01:02:26.296Z,1020.15
2019-04-01T01:03:26.295Z,1020.17
2019-04-01T01:04:26.276Z,1020.11
2019-04-01T01:05:27.120Z,1020.18
2019-04-01T01:06:26.262Z,1020.15
2019-04-01T01:07:26.255Z,1020.19
2019-04-01T01:08:26.236Z,1020.12
2019-04-01T01:09:26.223Z,1020.14
2019-04-01T01:10:26.212Z,1020.18
2019-04-01T01:11:26.210Z,1020.13
2019-04-01T01:12:26.190Z,1020.14
2019-04-01T01:13:26.195Z,1020.10
2019-04-01T01:14:27.116Z,1020.11
2019-04-01T01:15:26.173Z,1020.10
2019-04-01T01:16:26.161Z,1020.08
2019-04-01T01:17:26.136Z,1020.13
2019-04-01T01:18:27.105Z,1020.10
2019-04-01T01:19:27.106Z,1020.10
2019-04-01T01:20:26.120Z,1020.10
2019-04-01T01:21:26.102Z,1020.10
2019-04-01T01:22:26.083Z,1020.12
2019-04-01T01:23:26.078Z,1020.10
2019-04-01T01:24:26.070Z,1020.11
2019-04-01T01:25:26.067Z,1020.08
2019-04-01T01:26:26.126Z,1020.10
2019-04-01T01:27:26.035Z,1020.03
2019-04-01T01:28:26.602Z,1020.09
2019-04-01T01:29:26.014Z,1020.02
2019-04-01T01:30:26.021Z,1020.07
2019-04-01T01:31:26.029Z,1020.03
2019-04-01T01:32:25.985Z,1020.04
2019-04-01T01:33:25.969Z,1020.02
2019-04-01T01:34:25.964Z,1020.03
2019-04-01T01:35:25.956Z,1019.97
2019-04-01T01:36:26.123Z,1019.98
2019-04-01T01:37:25.929Z,1019.97
2019-04-01T01:38:26.600Z,1019.96
2019-04-01T01:39:25.906Z,1019.94
2019-04-01T01:40:25.915Z,1019.89
2019-04-01T01:41:26.115Z,1019.90
2019-04-01T01:42:25.874Z,1019.87
2019-04-01T01:43:25.872Z,1019.83
2019-04-01T01:44:25.855Z,1019.80
2019-04-01T01:45:25.857Z,1019.79
2019-04-01T01:46:26.114Z,1019.80
2019-04-01T01:47:25.817Z,1019.79
2019-04-01T01:48:25.808Z,1019.75
2019-04-01T01:49:25.797Z,1019.74
2019-04-01T01:50:25.791Z,1019.73
2019-04-01T01:51:25.799Z,1019.77
2019-04-01T01:52:25.769Z,1019.74
2019-04-01T01:53:25.788Z,1019.73
2019-04-01T01:54:25.759Z,1019.72
2019-04-01T01:55:25.747Z,1019.73
2019-04-01T01:56:25.753Z,1019.73
2019-04-01T01:57:25.712Z,1019.76
2019-04-01T01:58:26.616Z,1019.73
2019-04-01T01:59:25.704Z,1019.73
2019-04-01T02:00:25.684Z,1019.70
2019-04-01T02:01:25.683Z,1019.68
2019-04-01T02:02:25.670Z,1019.65
2019-04-01T02:03:25.655Z,1019.72
2019-04-01T02:04:26.604Z,1019.70
2019-04-01T02:05:25.635Z,1019.64
2019-04-01T02:06:25.614Z,1019.67
2019-04-01T02:07:25.637Z,1019.67
2019-04-01T02:08:25.594Z,1019.68
2019-04-01T02:09:25.590Z,1019.68
2019-04-01T02:10:25.579Z,1019.66
2019-04-01T02:11:25.581Z,1019.68
2019-04-01T02:12:25.626Z,1019.64
2019-04-01T02:13:25.541Z,1019.67
2019-04-01T02:14:26.116Z,1019.68
2019-04-01T02:15:25.520Z,1019.62
2019-04-01T02:16:25.523Z,1019.63
2019-04-01T02:17:25.516Z,1019.67
2019-04-01T02:18:25.488Z,1019.58
2019-04-01T02:19:25.477Z,1019.59
2019-04-01T02:20:25.467Z,1019.52
2019-04-01T02:21:26.112Z,1019.52
2019-04-01T02:22:25.450Z,1019.55
2019-04-01T02:23:26.107Z,1019.54
2019-04-01T02:24:25.423Z,1019.60
2019-04-01T02:25:25.409Z,1019.54
2019-04-01T02:26:25.404Z,1019.58
2019-04-01T02:27:25.408Z,1019.57
2019-04-01T02:28:25.381Z,1019.55
2019-04-01T02:29:25.371Z,1019.54
2019-04-01T02:30:25.359Z,1019.53
2019-04-01T02:31:25.354Z,1019.59
2019-04-01T02:32:25.352Z,1019.56
2019-04-01T02:33:26.111Z,1019.51
2019-04-01T02:34:25.318Z,1019.55
2019-04-01T02:35:25.305Z,1019.53
2019-04-01T02:36:26.120Z,1019.49
2019-04-01T02:37:25.298Z,1019.58
2019-04-01T02:38:26.106Z,1019.56
2019-04-01T02:39:25.265Z,1019.60
2019-04-01T02:40:25.254Z,1019.55
2019-04-01T02:41:25.238Z,1019.53
2019-04-01T02:42:25.252Z,1019.55
2019-04-01T02:43:26.113Z,1019.56
2019-04-01T02:44:25.220Z,1019.65
2019-04-01T02:45:25.199Z,1019.52
2019-04-01T02:46:26.110Z,1019.53
2019-04-01T02:47:25.203Z,1019.56
2019-04-01T02:48:25.168Z,1019.57
2019-04-01T02:49:25.151Z,1019.56
2019-04-01T02:50:25.169Z,1019.62
2019-04-01T02:51:25.149Z,1019.58
2019-04-01T02:52:25.623Z,1019.57
2019-04-01T02:53:25.106Z,1019.56
2019-04-01T02:54:25.100Z,1019.61
2019-04-01T02:55:25.092Z,1019.57
2019-04-01T02:56:25.627Z,1019.60
2019-04-01T02:57:25.086Z,1019.57
2019-04-01T02:58:25.056Z,1019.55
2019-04-01T02:59:25.046Z,1019.54
2019-04-01T03:00:25.031Z,1019.56
2019-04-01T03:01:25.623Z,1019.56
2019-04-01T03:02:25.023Z,1019.54
2019-04-01T03:03:25.007Z,1019.58
2019-04-01T03:04:24.991Z,1019.51
2019-04-01T03:05:24.985Z,1019.55
2019-04-01T03:06:25.626Z,1019.50
2019-04-01T03:07:24.959Z,1019.50
2019-04-01T03:08:25.124Z,1019.51
2019-04-01T03:09:24.942Z,1019.50
2019-04-01T03:10:24.946Z,1019.49
2019-04-01T03:11:24.936Z,1019.47
2019-04-01T03:12:24.908Z,1019.49
2019-04-01T03:13:24.951Z,1019.49
2019-04-01T03:14:24.892Z,1019.43
2019-04-01T03:15:24.871Z,1019.45
2019-04-01T03:16:24.870Z,1019.50
2019-04-01T03:17:24.856Z,1019.47
2019-04-01T03:18:25.128Z,1019.51
2019-04-01T03:19:24.836Z,1019.47
2019-04-01T03:20:24.815Z,1019.49
2019-04-01T03:21:25.613Z,1019.43
2019-04-01T03:22:25.614Z,1019.45
2019-04-01T03:23:24.803Z,1019.48
2019-04-01T03:24:24.779Z,1019.48
2019-04-01T03:25:24.758Z,1019.43
2019-04-01T03:26:24.754Z,1019.52
2019-04-01T03:27:25.609Z,1019.49
2019-04-01T03:28:25.134Z,1019.44
2019-04-01T03:29:24.721Z,1019.44
2019-04-01T03:30:24.725Z,1019.48
2019-04-01T03:31:24.747Z,1019.47
2019-04-01T03:32:24.695Z,1019.45
2019-04-01T03:33:25.126Z,1019.48
2019-04-01T03:34:24.678Z,1019.40
2019-04-01T03:35:24.657Z,1019.45
2019-04-01T03:36:24.647Z,1019.40
2019-04-01T03:37:24.632Z,1019.38
2019-04-01T03:38:27.814Z,1019.38
2019-04-01T03:39:24.615Z,1019.38
2019-04-01T03:40:24.597Z,1019.42
2019-04-01T03:41:25.120Z,1019.40
2019-04-01T03:42:24.580Z,1019.37
2019-04-01T03:43:24.589Z,1019.42
2019-04-01T03:44:24.655Z,1019.39
2019-04-01T03:45:24.546Z,1019.35
2019-04-01T03:46:24.554Z,1019.36
2019-04-01T03:47:24.528Z,1019.36
2019-04-01T03:48:24.537Z,1019.35
2019-04-01T03:49:24.505Z,1019.38
2019-04-01T03:50:24.494Z,1019.37
2019-04-01T03:51:24.501Z,1019.37
2019-04-01T03:52:24.473Z,1019.36
2019-04-01T03:53:24.477Z,1019.35
2019-04-01T03:54:24.451Z,1019.35
2019-04-01T03:55:24.445Z,1019.38
2019-04-01T03:56:24.454Z,1019.38
2019-04-01T03:57:24.449Z,1019.35
2019-04-01T03:58:24.627Z,1019.34
2019-04-01T03:59:24.400Z,1019.33
2019-04-01T04:00:24.385Z,1019.32
2019-04-01T04:01:29.841Z,1019.36
2019-04-01T04:02:24.365Z,1019.38
2019-04-01T04:03:24.637Z,1019.37
2019-04-01T04:04:24.379Z,1019.45
2019-04-01T04:05:24.338Z,1019.40
2019-04-01T04:06:24.321Z,1019.40
2019-04-01T04:07:25.132Z,1019.36
2019-04-01T04:08:25.114Z,1019.34
2019-04-01T04:09:24.304Z,1019.32
2019-04-01T04:10:24.279Z,1019.33
2019-04-01T04:11:24.295Z,1019.33
2019-04-01T04:12:24.285Z,1019.39
2019-04-01T04:13:24.253Z,1019.30
2019-04-01T04:14:24.246Z,1019.30
2019-04-01T04:15:24.230Z,1019.31
2019-04-01T04:16:24.216Z,1019.27
2019-04-01T04:17:24.221Z,1019.32
2019-04-01T04:18:24.197Z,1019.30
2019-04-01T04:19:24.195Z,1019.21
2019-04-01T04:20:24.199Z,1019.26
2019-04-01T04:21:25.116Z,1019.22
2019-04-01T04:22:24.162Z,1019.22
2019-04-01T04:23:25.117Z,1019.25
2019-04-01T04:24:24.139Z,1019.20
2019-04-01T04:25:24.120Z,1019.27
2019-04-01T04:26:24.109Z,1019.24
2019-04-01T04:27:24.632Z,1019.20
2019-04-01T04:28:24.099Z,1019.20
2019-04-01T04:29:24.141Z,1019.16
2019-04-01T04:30:24.107Z,1019.17
2019-04-01T04:31:24.616Z,1019.14
2019-04-01T04:32:24.628Z,1019.21
2019-04-01T04:33:24.030Z,1019.14
2019-04-01T04:34:24.032Z,1019.14
2019-04-01T04:35:24.613Z,1019.16
2019-04-01T04:36:24.631Z,1019.12
2019-04-01T04:37:24.008Z,1019.08
2019-04-01T04:38:24.620Z,1019.14
2019-04-01T04:39:23.980Z,1019.12
2019-04-01T04:40:23.958Z,1019.16
2019-04-01T04:41:23.947Z,1019.10
2019-04-01T04:42:23.956Z,1019.12
2019-04-01T04:43:23.931Z,1019.09
2019-04-01T04:44:24.131Z,1019.07
2019-04-01T04:45:23.905Z,1019.07
2019-04-01T04:46:23.894Z,1019.08
2019-04-01T04:47:24.629Z,1019.10
2019-04-01T04:48:23.874Z,1019.09
2019-04-01T04:49:24.147Z,1019.09
2019-04-01T04:50:23.850Z,1019.13
2019-04-01T04:51:23.849Z,1019.09
2019-04-01T04:52:23.830Z,1019.06
2019-04-01T04:53:23.818Z,1019.03
2019-04-01T04:54:24.142Z,1019.06
2019-04-01T04:55:23.802Z,1019.07
2019-04-01T04:56:24.615Z,1019.04
2019-04-01T04:57:23.789Z,1019.10
2019-04-01T04:58:24.620Z,1019.09
2019-04-01T04:59:23.759Z,1019.11
2019-04-01T05:00:23.786Z,1019.11
2019-04-01T05:01:23.737Z,1019.05
2019-04-01T05:02:24.837Z,1019.12
2019-04-01T05:03:23.713Z,1019.13
2019-04-01T05:04:23.712Z,1019.18
2019-04-01T05:05:24.131Z,1019.13
2019-04-01T05:06:24.620Z,1019.15
2019-04-01T05:07:23.673Z,1019.16
2019-04-01T05:08:23.661Z,1019.14
2019-04-01T05:09:23.658Z,1019.11
2019-04-01T05:10:23.657Z,1019.08
2019-04-01T05:11:24.626Z,1019.10
2019-04-01T05:12:23.616Z,1019.15
2019-04-01T05:13:24.201Z,1019.19
2019-04-01T05:14:23.605Z,1019.18
2019-04-01T05:15:23.610Z,1019.20
2019-04-01T05:16:23.575Z,1019.22
2019-04-01T05:17:23.571Z,1019.21
2019-04-01T05:18:23.556Z,1019.20
2019-04-01T05:19:23.560Z,1019.19
2019-04-01T05:20:23.541Z,1019.20
2019-04-01T05:21:23.520Z,1019.18
2019-04-01T05:22:23.513Z,1019.20
2019-04-01T05:23:24.126Z,1019.18
2019-04-01T05:24:23.533Z,1019.19
2019-04-01T05:25:23.643Z,1019.18
2019-04-01T05:26:23.466Z,1019.16
2019-04-01T05:27:23.471Z,1019.17
2019-04-01T05:28:24.127Z,1019.19
2019-04-01T05:29:23.441Z,1019.22
2019-04-01T05:30:23.431Z,1019.25
2019-04-01T05:31:24.119Z,1019.23
2019-04-01T05:32:23.425Z,1019.28
2019-04-01T05:33:24.132Z,1019.27
2019-04-01T05:34:24.117Z,1019.28
2019-04-01T05:35:23.631Z,1019.24
2019-04-01T05:36:24.119Z,1019.23
2019-04-01T05:37:23.372Z,1019.27
2019-04-01T05:38:23.360Z,1019.21
2019-04-01T05:39:23.331Z,1019.26
2019-04-01T05:40:23.636Z,1019.30
2019-04-01T05:41:23.306Z,1019.25
2019-04-01T05:42:23.316Z,1019.24
2019-04-01T05:43:23.329Z,1019.28
2019-04-01T05:44:23.275Z,1019.29
2019-04-01T05:45:23.629Z,1019.27
2019-04-01T05:46:23.254Z,1019.30
2019-04-01T05:47:24.134Z,1019.28
2019-04-01T05:48:23.252Z,1019.32
2019-04-01T05:49:23.220Z,1019.27
2019-04-01T05:50:23.218Z,1019.31
2019-04-01T05:51:23.209Z,1019.29
2019-04-01T05:52:23.249Z,1019.25
2019-04-01T05:53:23.178Z,1019.25
2019-04-01T05:54:23.175Z,1019.27
2019-04-01T05:55:23.164Z,1019.26
2019-04-01T05:56:23.146Z,1019.25
2019-04-01T05:57:24.128Z,1019.29
2019-04-01T05:58:23.127Z,1019.28
2019-04-01T05:59:23.139Z,1019.27
2019-04-01T06:00:23.108Z,1019.25
2019-04-01T06:01:23.093Z,1019.23
2019-04-01T06:02:23.080Z,1019.25
2019-04-01T06:03:23.626Z,1019.23
2019-04-01T06:04:23.080Z,1019.23
2019-04-01T06:05:23.061Z,1019.26
2019-04-01T06:06:23.045Z,1019.24
2019-04-01T06:07:23.629Z,1019.24
2019-04-01T06:08:23.017Z,1019.26
2019-04-01T06:09:23.014Z,1019.26
2019-04-01T06:10:23.147Z,1019.24
2019-04-01T06:11:22.985Z,1019.21
2019-04-01T06:12:24.257Z,1019.22
2019-04-01T06:13:22.978Z,1019.29
2019-04-01T06:14:22.964Z,1019.22
2019-04-01T06:15:23.649Z,1019.26
2019-04-01T06:16:22.970Z,1019.23
2019-04-01T06:17:22.937Z,1019.23
2019-04-01T06:18:22.923Z,1019.27
2019-04-01T06:19:22.901Z,1019.29
2019-04-01T06:20:22.895Z,1019.23
2019-04-01T06:21:22.889Z,1019.26
2019-04-01T06:22:22.916Z,1019.28
2019-04-01T06:23:22.876Z,1019.25
2019-04-01T06:24:24.835Z,1019.21
2019-04-01T06:25:22.850Z,1019.26
2019-04-01T06:26:23.165Z,1019.23
2019-04-01T06:27:23.404Z,1019.24
2019-04-01T06:28:22.862Z,1019.20
2019-04-01T06:29:23.671Z,1019.17
2019-04-01T06:30:23.671Z,1019.26
2019-04-01T06:31:22.787Z,1019.22
2019-04-01T06:32:22.766Z,1019.21
2019-04-01T06:33:23.639Z,1019.21
2019-04-01T06:34:23.626Z,1019.22
2019-04-01T06:35:22.731Z,1019.16
2019-04-01T06:36:22.733Z,1019.17
2019-04-01T06:37:22.743Z,1019.18
2019-04-01T06:38:23.639Z,1019.15
2019-04-01T06:39:22.695Z,1019.17
2019-04-01T06:40:22.685Z,1019.06
2019-04-01T06:41:22.676Z,1019.16
2019-04-01T06:42:22.657Z,1019.09
2019-04-01T06:43:22.673Z,1019.09
2019-04-01T06:44:22.640Z,1019.01
2019-04-01T06:45:22.631Z,1019.10
2019-04-01T06:46:22.717Z,1019.13
2019-04-01T06:47:22.606Z,1019.13
2019-04-01T06:48:23.139Z,1019.13
2019-04-01T06:49:22.582Z,1019.10
2019-04-01T06:50:22.582Z,1019.12
2019-04-01T06:51:22.571Z,1019.13
2019-04-01T06:52:22.561Z,1019.17
2019-04-01T06:53:23.152Z,1019.13
2019-04-01T06:54:22.530Z,1019.13
2019-04-01T06:55:23.125Z,1019.10
2019-04-01T06:56:22.517Z,1019.10
2019-04-01T06:57:23.134Z,1019.09
2019-04-01T06:58:22.516Z,1019.12
2019-04-01T06:59:22.478Z,1019.05
2019-04-01T07:00:22.463Z,1019.05
2019-04-01T07:01:22.664Z,1019.04
2019-04-01T07:02:22.442Z,1019.06
2019-04-01T07:03:23.124Z,1019.09
2019-04-01T07:04:22.440Z,1019.08
2019-04-01T07:05:22.413Z,1019.10
2019-04-01T07:06:22.423Z,1019.04
2019-04-01T07:07:22.399Z,1019.07
2019-04-01T07:08:22.394Z,1019.02
2019-04-01T07:09:22.377Z,1019.07
2019-04-01T07:10:24.813Z,1019.08
2019-04-01T07:11:22.469Z,1019.11
2019-04-01T07:12:22.643Z,1019.00
2019-04-01T07:13:22.345Z,1019.03
2019-04-01T07:14:23.138Z,1019.07
2019-04-01T07:15:22.311Z,1019.09
2019-04-01T07:16:22.298Z,1019.07
2019-04-01T07:17:22.293Z,1019.04
2019-04-01T07:18:22.273Z,1019.04
2019-04-01T07:19:23.126Z,1019.03
2019-04-01T07:20:23.128Z,1019.00
2019-04-01T07:21:22.253Z,1019.05
2019-04-01T07:22:22.241Z,1019.04
2019-04-01T07:23:22.230Z,1018.97
2019-04-01T07:24:22.272Z,1019.04
2019-04-01T07:25:22.204Z,1019.01
2019-04-01T07:26:23.151Z,1019.00
2019-04-01T07:27:22.196Z,1018.97
2019-04-01T07:28:22.169Z,1018.98
2019-04-01T07:29:22.177Z,1019.01
2019-04-01T07:30:22.247Z,1018.99
2019-04-01T07:31:23.130Z,1018.98
2019-04-01T07:32:22.144Z,1019.00
2019-04-01T07:33:22.115Z,1018.99
2019-04-01T07:34:22.106Z,1018.92
2019-04-01T07:35:22.664Z,1019.02
2019-04-01T07:36:22.104Z,1018.96
2019-04-01T07:37:22.086Z,1018.98
2019-04-01T07:38:22.079Z,1018.91
2019-04-01T07:39:22.053Z,1018.99
2019-04-01T07:40:22.041Z,1018.93
2019-04-01T07:41:22.031Z,1018.92
2019-04-01T07:42:22.074Z,1018.87
2019-04-01T07:43:22.016Z,1018.85
2019-04-01T07:44:22.000Z,1018.89
2019-04-01T07:45:22.029Z,1018.89
2019-04-01T07:46:22.631Z,1018.84
2019-04-01T07:47:21.992Z,1018.84
2019-04-01T07:48:21.973Z,1018.82
2019-04-01T07:49:21.956Z,1018.81
2019-04-01T07:50:21.939Z,1018.77
2019-04-01T07:51:22.059Z,1018.84
2019-04-01T07:52:22.140Z,1018.84
2019-04-01T07:53:21.929Z,1018.73
2019-04-01T07:54:21.901Z,1018.78
2019-04-01T07:55:22.635Z,1018.81
2019-04-01T07:56:21.877Z,1018.79
2019-04-01T07:57:22.201Z,1018.73
2019-04-01T07:58:21.851Z,1018.70
2019-04-01T07:59:21.844Z,1018.73
2019-04-01T08:00:22.658Z,1018.70
2019-04-01T08:01:22.645Z,1018.67
2019-04-01T08:02:22.153Z,1018.72
2019-04-01T08:03:22.186Z,1018.67
2019-04-01T08:04:21.784Z,1018.70
2019-04-01T08:05:21.779Z,1018.65
2019-04-01T08:06:21.765Z,1018.73
2019-04-01T08:07:22.631Z,1018.70
2019-04-01T08:08:21.829Z,1018.70
2019-04-01T08:09:21.761Z,1018.69
2019-04-01T08:10:21.724Z,1018.61
2019-04-01T08:11:21.713Z,1018.64
2019-04-01T08:12:21.709Z,1018.64
2019-04-01T08:13:21.715Z,1018.63
2019-04-01T08:14:21.681Z,1018.64
2019-04-01T08:15:21.740Z,1018.67
2019-04-01T08:16:21.670Z,1018.66
2019-04-01T08:17:22.636Z,1018.67
2019-04-01T08:18:22.198Z,1018.63
2019-04-01T08:19:21.627Z,1018.61
2019-04-01T08:20:21.624Z,1018.63
2019-04-01T08:21:22.133Z,1018.63
2019-04-01T08:22:21.596Z,1018.61
2019-04-01T08:23:21.644Z,1018.65
2019-04-01T08:24:22.141Z,1018.59
2019-04-01T08:25:22.136Z,1018.62
2019-04-01T08:26:21.556Z,1018.58
2019-04-01T08:27:22.133Z,1018.58
2019-04-01T08:28:23.806Z,1018.58
2019-04-01T08:29:30.207Z,1018.52
2019-04-01T08:30:21.511Z,1018.64
2019-04-01T08:31:21.500Z,1018.62
2019-04-01T08:32:21.489Z,1018.54
2019-04-01T08:33:21.491Z,1018.59
2019-04-01T08:34:21.473Z,1018.62
2019-04-01T08:35:22.135Z,1018.62
2019-04-01T08:36:22.173Z,1018.61
2019-04-01T08:37:22.134Z,1018.63
2019-04-01T08:38:21.444Z,1018.68
2019-04-01T08:39:22.225Z,1018.67
2019-04-01T08:40:21.411Z,1018.62
2019-04-01T08:41:22.130Z,1018.66
2019-04-01T08:42:21.393Z,1018.59
2019-04-01T08:43:21.406Z,1018.58
2019-04-01T08:44:22.144Z,1018.64
2019-04-01T08:45:21.351Z,1018.61
2019-04-01T08:46:21.342Z,1018.60
2019-04-01T08:47:21.373Z,1018.56
2019-04-01T08:48:21.328Z,1018.49
2019-04-01T08:49:21.310Z,1018.50
2019-04-01T08:50:21.301Z,1018.53
2019-04-01T08:51:21.286Z,1018.56
2019-04-01T08:52:21.280Z,1018.58
2019-04-01T08:53:21.647Z,1018.52
2019-04-01T08:54:21.256Z,1018.44
2019-04-01T08:55:21.249Z,1018.52
2019-04-01T08:56:21.236Z,1018.45
2019-04-01T08:57:21.244Z,1018.47
2019-04-01T08:58:21.232Z,1018.37
2019-04-01T08:59:22.133Z,1018.41
2019-04-01T09:00:21.195Z,1018.41
2019-04-01T09:01:34.514Z,1018.40
2019-04-01T09:02:21.172Z,1018.46
2019-04-01T09:03:21.179Z,1018.43
2019-04-01T09:04:22.156Z,1018.39
2019-04-01T09:05:22.138Z,1018.36
2019-04-01T09:06:21.138Z,1018.38
2019-04-01T09:07:21.641Z,1018.43
2019-04-01T09:08:21.124Z,1018.37
2019-04-01T09:09:21.113Z,1018.36
2019-04-01T09:10:21.638Z,1018.35
2019-04-01T09:11:21.075Z,1018.25
2019-04-01T09:12:21.062Z,1018.31
2019-04-01T09:13:21.053Z,1018.31
2019-04-01T09:14:21.066Z,1018.38
2019-04-01T09:15:21.030Z,1018.30
2019-04-01T09:16:21.650Z,1018.30
2019-04-01T09:17:21.008Z,1018.29
2019-04-01T09:18:20.995Z,1018.24
2019-04-01T09:19:21.155Z,1018.26
2019-04-01T09:20:20.995Z,1018.27
2019-04-01T09:21:21.637Z,1018.24
2019-04-01T09:22:20.984Z,1018.19
2019-04-01T09:23:21.679Z,1018.22
2019-04-01T09:24:20.941Z,1018.17
2019-04-01T09:25:20.919Z,1018.16
2019-04-01T09:26:21.635Z,1018.15
2019-04-01T09:27:21.724Z,1018.16
2019-04-01T09:28:20.909Z,1018.16
2019-04-01T09:29:21.168Z,1018.07
2019-04-01T09:30:20.879Z,1018.13
2019-04-01T09:31:21.642Z,1018.13
2019-04-01T09:32:20.842Z,1018.12
2019-04-01T09:33:21.704Z,1018.15
2019-04-01T09:34:21.157Z,1018.08
2019-04-01T09:35:20.831Z,1018.11
2019-04-01T09:36:21.644Z,1018.02
2019-04-01T09:37:21.637Z,1017.93
2019-04-01T09:38:20.788Z,1018.02
2019-04-01T09:39:20.810Z,1017.99
2019-04-01T09:40:20.757Z,1018.00
2019-04-01T09:41:20.745Z,1017.93
2019-04-01T09:42:20.742Z,1018.03
2019-04-01T09:43:20.735Z,1017.94
2019-04-01T09:44:35.653Z,1017.94
2019-04-01T09:45:20.710Z,1017.92
2019-04-01T09:46:20.700Z,1017.92
2019-04-01T09:47:20.680Z,1017.93
2019-04-01T09:48:23.561Z,1017.87
2019-04-01T09:49:20.675Z,1017.82
2019-04-01T09:50:20.654Z,1017.88
2019-04-01T09:51:20.640Z,1017.87
2019-04-01T09:52:20.644Z,1017.87
2019-04-01T09:53:20.624Z,1017.80
2019-04-01T09:54:20.628Z,1017.86
2019-04-01T09:55:20.619Z,1017.86
2019-04-01T09:56:20.684Z,1017.83
2019-04-01T09:57:20.580Z,1017.86
2019-04-01T09:58:20.576Z,1017.82
2019-04-01T09:59:20.671Z,1017.81
2019-04-01T10:00:20.552Z,1017.80
2019-04-01T10:01:20.539Z,1017.74
2019-04-01T10:02:31.616Z,1017.73
2019-04-01T10:03:20.517Z,1017.71
2019-04-01T10:04:20.503Z,1017.69
2019-04-01T10:05:20.501Z,1017.70
2019-04-01T10:06:20.499Z,1017.71
2019-04-01T10:07:20.479Z,1017.62
2019-04-01T10:08:20.490Z,1017.64
2019-04-01T10:09:20.499Z,1017.67
2019-04-01T10:10:20.517Z,1017.60
2019-04-01T10:11:20.435Z,1017.66
2019-04-01T10:12:20.445Z,1017.67
2019-04-01T10:13:21.162Z,1017.68
2019-04-01T10:14:21.211Z,1017.61
2019-04-01T10:15:20.655Z,1017.63
2019-04-01T10:16:20.384Z,1017.66
2019-04-01T10:17:20.383Z,1017.61
2019-04-01T10:18:20.366Z,1017.56
2019-04-01T10:19:20.730Z,1017.60
2019-04-01T10:20:20.658Z,1017.56
2019-04-01T10:21:21.144Z,1017.58
2019-04-01T10:22:21.221Z,1017.54
2019-04-01T10:23:20.306Z,1017.56
2019-04-01T10:24:20.291Z,1017.51
2019-04-01T10:25:20.298Z,1017.46
2019-04-01T10:26:20.287Z,1017.44
2019-04-01T10:27:20.263Z,1017.41
2019-04-01T10:28:20.269Z,1017.45
2019-04-01T10:29:20.267Z,1017.38
2019-04-01T10:30:20.257Z,1017.39
2019-04-01T10:31:20.229Z,1017.34
2019-04-01T10:32:20.204Z,1017.34
2019-04-01T10:33:21.175Z,1017.36
2019-04-01T10:34:20.183Z,1017.34
2019-04-01T10:35:20.216Z,1017.29
2019-04-01T10:36:20.162Z,1017.34
2019-04-01T10:37:20.179Z,1017.30
2019-04-01T10:38:20.139Z,1017.32
2019-04-01T10:39:20.131Z,1017.36
2019-04-01T10:40:20.126Z,1017.32
2019-04-01T10:41:20.108Z,1017.30
2019-04-01T10:42:20.111Z,1017.24
2019-04-01T10:43:20.105Z,1017.22
2019-04-01T10:44:20.682Z,1017.23
2019-04-01T10:45:20.192Z,1017.27
2019-04-01T10:46:20.642Z,1017.21
2019-04-01T10:47:20.161Z,1017.14
2019-04-01T10:48:20.700Z,1017.10
2019-04-01T10:49:20.057Z,1017.09
2019-04-01T10:50:20.202Z,1017.09
2019-04-01T10:51:20.127Z,1017.11
2019-04-01T10:52:20.038Z,1017.09
2019-04-01T10:53:20.727Z,1017.04
2019-04-01T10:54:20.667Z,1016.99
2019-04-01T10:55:20.003Z,1017.04
2019-04-01T10:56:19.983Z,1016.95
2019-04-01T10:57:20.057Z,1016.88
2019-04-01T10:58:19.925Z,1016.93
2019-04-01T10:59:20.651Z,1016.95
2019-04-01T11:00:20.220Z,1016.89
2019-04-01T11:01:19.973Z,1016.90
2019-04-01T11:02:19.921Z,1016.89
2019-04-01T11:03:19.905Z,1016.87
2019-04-01T11:04:19.858Z,1016.84
2019-04-01T11:05:20.691Z,1016.85
2019-04-01T11:06:20.214Z,1016.81
2019-04-01T11:07:19.889Z,1016.84
2019-04-01T11:08:19.872Z,1016.81
2019-04-01T11:09:19.814Z,1016.75
2019-04-01T11:10:19.825Z,1016.78
2019-04-01T11:11:20.660Z,1016.86
2019-04-01T11:12:19.779Z,1016.85
2019-04-01T11:13:19.804Z,1016.80
2019-04-01T11:14:19.756Z,1016.78
2019-04-01T11:15:20.183Z,1016.79
2019-04-01T11:16:19.770Z,1016.74
2019-04-01T11:17:20.668Z,1016.73
2019-04-01T11:18:19.722Z,1016.69
2019-04-01T11:19:19.792Z,1016.69
2019-04-01T11:20:20.672Z,1016.75
2019-04-01T11:21:19.689Z,1016.76
2019-04-01T11:22:19.668Z,1016.74
2019-04-01T11:23:19.658Z,1016.69
2019-04-01T11:24:19.681Z,1016.65
2019-04-01T11:25:19.649Z,1016.67
2019-04-01T11:26:19.690Z,1016.66
2019-04-01T11:27:20.187Z,1016.60
2019-04-01T11:28:20.147Z,1016.60
2019-04-01T11:29:19.601Z,1016.61
2019-04-01T11:30:19.642Z,1016.55
2019-04-01T11:31:19.689Z,1016.50
2019-04-01T11:32:20.278Z,1016.49
2019-04-01T11:33:20.222Z,1016.47
2019-04-01T11:34:20.147Z,1016.49
2019-04-01T11:35:20.143Z,1016.51
2019-04-01T11:36:19.526Z,1016.44
2019-04-01T11:37:20.247Z,1016.36
2019-04-01T11:38:19.522Z,1016.35
2019-04-01T11:39:19.531Z,1016.36
2019-04-01T11:40:19.473Z,1016.39
2019-04-01T11:41:19.802Z,1016.42
2019-04-01T11:42:20.188Z,1016.33
2019-04-01T11:43:19.522Z,1016.39
2019-04-01T11:44:19.468Z,1016.28
2019-04-01T11:45:19.471Z,1016.33
2019-04-01T11:46:19.433Z,1016.37
2019-04-01T11:47:22.065Z,1016.30
2019-04-01T11:48:19.436Z,1016.24
2019-04-01T11:49:19.389Z,1016.27
2019-04-01T11:50:20.234Z,1016.29
2019-04-01T11:51:31.929Z,1016.29
2019-04-01T11:52:19.378Z,1016.32
2019-04-01T11:53:19.339Z,1016.31
2019-04-01T11:54:20.144Z,1016.29
2019-04-01T11:55:20.176Z,1016.33
2019-04-01T11:56:19.312Z,1016.29
2019-04-01T11:57:19.302Z,1016.31
2019-04-01T11:58:19.285Z,1016.26
2019-04-01T11:59:19.289Z,1016.25
2019-04-01T12:00:19.284Z,1016.22
2019-04-01T12:01:19.262Z,1016.12
2019-04-01T12:02:20.183Z,1016.15
2019-04-01T12:03:19.968Z,1016.17
2019-04-01T12:04:19.212Z,1016.21
2019-04-01T12:05:19.232Z,1016.23